Terminal Aerodrome Forecast
Issued by NWS

Home | Current Version | Previous Version | Text Only | Print | Product List | Glossary On
Versions: 1 2 3 4 5 6 7 8 9 10 11 12 13
000
FTUS44 KEPZ 171100
TAFTCS
TAF
KTCS 171128Z 1712/1812 01011KT P6SM SKC
     FM171500 05007KT P6SM SKC
     FM172000 16012KT P6SM SKC
     FM180500 27005KT P6SM SKC=

USA.gov is the U.S. government's official web portal to all federal, state and local government web resources and services.